createdAt,value
2018-05-11T00:01:56.913Z,11.70
2018-05-11T00:07:00.396Z,11.80
2018-05-11T00:12:02.967Z,11.90
2018-05-11T00:17:05.557Z,11.68
2018-05-11T00:27:22.328Z,10.80
2018-05-11T00:32:24.842Z,12.07
2018-05-11T00:37:28.178Z,11.97
2018-05-11T00:42:30.773Z,12.82
2018-05-11T00:47:34.099Z,12.13
2018-05-11T00:52:36.679Z,12.80
2018-05-11T00:57:39.942Z,12.55
2018-05-11T01:02:42.588Z,12.03
2018-05-11T01:07:45.198Z,11.90
2018-05-11T01:12:47.724Z,12.03
2018-05-11T01:17:50.245Z,12.23
2018-05-11T01:22:53.536Z,14.73
2018-05-11T01:27:56.061Z,12.85
2018-05-11T01:32:59.340Z,12.80
2018-05-11T01:38:01.872Z,13.75
2018-05-11T01:43:05.168Z,14.00
2018-05-11T01:48:07.739Z,13.60
2018-05-11T01:53:10.291Z,13.07
2018-05-11T01:58:17.492Z,13.80
2018-05-11T02:03:20.025Z,14.00
2018-05-11T02:08:24.348Z,15.23
2018-05-11T02:13:26.901Z,13.70
2018-05-11T02:18:29.482Z,13.88
2018-05-11T02:23:32.817Z,11.32
2018-05-11T02:28:35.362Z,12.10
2018-05-11T02:33:37.908Z,12.20
2018-05-11T02:38:45.031Z,13.77
2018-05-11T02:43:47.603Z,13.45
2018-05-11T02:48:50.137Z,14.85
2018-05-11T02:53:53.588Z,13.35
2018-05-11T02:59:01.716Z,13.60
2018-05-11T03:04:06.284Z,13.47
2018-05-11T03:09:08.834Z,14.97
2018-05-11T03:14:12.340Z,13.40
2018-05-11T03:19:14.861Z,14.60
2018-05-11T03:24:17.380Z,12.70
2018-05-11T03:29:20.055Z,13.03
2018-05-11T03:34:22.613Z,13.43
2018-05-11T03:39:26.073Z,13.45
2018-05-11T03:44:28.618Z,12.68
2018-05-11T03:49:31.158Z,13.15
2018-05-11T03:54:33.690Z,14.95
2018-05-11T03:59:36.255Z,13.98
2018-05-11T04:04:51.220Z,14.70
2018-05-11T04:09:57.341Z,13.48
2018-05-11T04:15:00.335Z,14.80
2018-05-11T04:20:06.390Z,14.43
2018-05-11T04:25:09.688Z,14.52
2018-05-11T04:30:13.043Z,16.05
2018-05-11T04:35:15.993Z,15.05
2018-05-11T04:40:20.573Z,15.70
2018-05-11T04:45:23.768Z,14.87
2018-05-11T04:50:26.291Z,12.90
2018-05-11T04:55:28.816Z,13.52
2018-05-11T05:00:31.340Z,14.32
2018-05-11T05:05:34.629Z,14.30
2018-05-11T05:10:37.242Z,14.40
2018-05-11T05:15:40.532Z,13.75
2018-05-11T05:20:43.076Z,16.00
2018-05-11T05:25:45.627Z,15.35
2018-05-11T05:30:48.987Z,17.23
2018-05-11T05:35:51.560Z,21.02
2018-05-11T05:40:57.491Z,20.98
2018-05-11T05:46:00.029Z,19.57
2018-05-11T05:51:02.640Z,18.80
2018-05-11T05:56:06.098Z,18.27
2018-05-11T06:01:09.850Z,18.70
2018-05-11T06:06:17.201Z,17.20
2018-05-11T06:11:19.767Z,16.65
2018-05-11T06:16:22.397Z,14.93
2018-05-11T06:21:25.616Z,16.67
2018-05-11T06:26:28.184Z,14.93
2018-05-11T06:31:33.698Z,14.20
2018-05-11T06:36:37.477Z,14.35
2018-05-11T06:41:41.833Z,13.00
2018-05-11T06:46:46.502Z,13.38
2018-05-11T06:51:49.075Z,12.75
2018-05-11T06:56:51.686Z,12.35
2018-05-11T07:01:54.338Z,13.30
2018-05-11T07:06:57.001Z,12.10
2018-05-11T07:12:00.331Z,11.68
2018-05-11T07:17:02.924Z,12.00
2018-05-11T07:22:05.508Z,11.37
2018-05-11T07:27:08.896Z,12.48
2018-05-11T07:32:11.453Z,14.00
2018-05-11T07:37:14.013Z,13.35
2018-05-11T07:42:18.628Z,13.70
2018-05-11T07:47:24.623Z,11.90
2018-05-11T07:52:28.869Z,13.50
2018-05-11T07:57:31.410Z,13.90
2018-05-11T08:02:33.982Z,14.57
2018-05-11T08:07:36.577Z,16.55
2018-05-11T08:12:41.000Z,16.02
2018-05-11T08:17:43.667Z,15.23
2018-05-11T08:22:48.377Z,16.77
2018-05-11T08:27:52.881Z,15.70
2018-05-11T08:32:55.342Z,18.48
2018-05-11T08:37:58.663Z,17.30
2018-05-11T08:48:14.750Z,17.50
2018-05-11T08:53:18.915Z,17.42
2018-05-11T08:58:21.516Z,17.17
2018-05-11T09:03:24.920Z,16.00
2018-05-11T09:08:27.646Z,17.33
2018-05-11T09:13:34.057Z,18.42
2018-05-11T09:18:37.732Z,17.70
2018-05-11T09:23:40.400Z,18.40
2018-05-11T09:28:44.123Z,17.02
2018-05-11T09:33:46.729Z,16.65
2018-05-11T09:38:49.339Z,15.20
2018-05-11T09:43:52.728Z,14.37
2018-05-11T09:48:55.318Z,16.30
2018-05-11T09:53:57.883Z,13.77
2018-05-11T09:59:00.479Z,13.18
2018-05-11T10:04:03.083Z,12.30
2018-05-11T10:09:05.707Z,12.30
2018-05-11T10:14:08.318Z,11.30
2018-05-11T10:19:10.991Z,11.60
2018-05-11T10:24:14.411Z,10.20
2018-05-11T10:29:16.983Z,9.93
2018-05-11T10:34:19.571Z,10.60
2018-05-11T10:39:22.258Z,10.15
2018-05-11T10:44:24.955Z,10.00
2018-05-11T10:49:30.311Z,8.38
2018-05-11T10:54:32.917Z,9.75
2018-05-11T10:59:36.402Z,9.30
2018-05-11T11:04:38.976Z,9.50
2018-05-11T11:09:42.211Z,8.80
2018-05-11T11:14:44.755Z,8.90
2018-05-11T11:19:47.370Z,9.40
2018-05-11T11:24:49.975Z,9.55
2018-05-11T11:29:54.552Z,7.37
2018-05-11T11:34:58.060Z,8.70
2018-05-11T11:40:00.749Z,7.70
2018-05-11T11:45:07.421Z,9.90
2018-05-11T11:50:10.856Z,8.10
2018-05-11T11:55:14.629Z,8.88
2018-05-11T12:00:18.124Z,10.00
2018-05-11T12:05:20.723Z,8.70
2018-05-11T12:10:23.265Z,8.70
2018-05-11T12:15:26.652Z,9.38
2018-05-11T12:20:29.961Z,9.77
2018-05-11T12:25:36.387Z,8.82
2018-05-11T12:30:39.698Z,9.10
2018-05-11T12:35:43.019Z,9.80
2018-05-11T12:40:45.615Z,9.00
2018-05-11T12:45:49.119Z,7.90
2018-05-11T12:50:51.765Z,10.50
2018-05-11T12:55:56.365Z,8.60
2018-05-11T13:00:59.869Z,8.90
2018-05-11T13:06:02.442Z,8.03
2018-05-11T13:11:05.958Z,7.30
2018-05-11T13:16:08.478Z,8.52
2018-05-11T13:21:11.104Z,7.80
2018-05-11T13:26:17.221Z,8.23
2018-05-11T13:31:19.777Z,7.57
2018-05-11T13:36:32.769Z,7.28
2018-05-11T13:41:35.248Z,8.50
2018-05-11T13:46:37.852Z,7.45
2018-05-11T13:51:40.378Z,7.25
2018-05-11T13:56:42.891Z,7.40
2018-05-11T14:01:45.444Z,7.55
2018-05-11T14:06:49.647Z,7.35
2018-05-11T14:11:52.926Z,6.45
2018-05-11T14:16:55.431Z,6.65
2018-05-11T14:21:58.703Z,6.70
2018-05-11T14:27:01.218Z,6.62
2018-05-11T14:32:03.845Z,7.30
2018-05-11T14:37:06.995Z,7.25
2018-05-11T14:42:09.524Z,6.87
2018-05-11T14:47:12.025Z,6.35
2018-05-11T14:52:15.333Z,6.50
2018-05-11T14:57:17.871Z,6.05
2018-05-11T15:02:20.374Z,6.68
2018-05-11T15:07:23.662Z,7.20
2018-05-11T15:12:26.166Z,6.73
2018-05-11T15:17:29.328Z,6.40
2018-05-11T15:22:32.800Z,5.87
2018-05-11T15:27:35.296Z,6.70
2018-05-11T15:32:37.846Z,5.40
2018-05-11T15:37:41.137Z,5.30
2018-05-11T15:42:43.766Z,6.20
2018-05-11T15:47:46.335Z,6.10
2018-05-11T15:52:49.605Z,5.75
2018-05-11T15:57:52.110Z,5.30
2018-05-11T16:02:54.637Z,5.70
2018-05-11T16:07:57.915Z,5.40
2018-05-11T16:13:00.428Z,4.90
2018-05-11T16:18:02.950Z,4.57
2018-05-11T16:23:05.468Z,5.00
2018-05-11T16:28:07.964Z,4.87
2018-05-11T16:33:10.875Z,4.27
2018-05-11T16:38:13.363Z,4.20
2018-05-11T16:43:15.854Z,4.60
2018-05-11T16:48:18.364Z,4.72
2018-05-11T16:53:20.907Z,4.10
2018-05-11T16:58:24.160Z,4.65
2018-05-11T17:03:27.462Z,4.10
2018-05-11T17:08:31.139Z,4.50
2018-05-11T17:13:34.988Z,4.40
2018-05-11T17:18:37.487Z,4.70
2018-05-11T17:23:40.000Z,4.57
2018-05-11T17:28:43.519Z,4.60
2018-05-11T17:33:46.958Z,5.10
2018-05-11T17:38:50.853Z,4.90
2018-05-11T17:43:54.353Z,5.05
2018-05-11T17:48:57.808Z,4.60
2018-05-11T17:54:00.295Z,4.20
2018-05-11T17:59:02.845Z,10.07
2018-05-11T18:04:05.356Z,7.67
2018-05-11T18:09:14.522Z,4.60
2018-05-11T18:14:17.011Z,4.70
2018-05-11T18:19:19.803Z,5.60
2018-05-11T18:24:22.784Z,5.45
2018-05-11T18:29:25.560Z,7.43
2018-05-11T18:34:28.050Z,6.80
2018-05-11T18:39:38.191Z,4.90
2018-05-11T18:44:40.633Z,5.50
2018-05-11T18:49:44.232Z,5.10
2018-05-11T18:54:47.485Z,5.75
2018-05-11T18:59:49.989Z,7.33
2018-05-11T19:04:54.183Z,7.90
2018-05-11T19:09:57.578Z,5.32
2018-05-11T19:15:06.158Z,38.27
2018-05-11T19:20:08.654Z,15.00
2018-05-11T19:25:11.229Z,7.43
2018-05-11T19:30:13.733Z,8.60
2018-05-11T19:35:16.234Z,8.70
2018-05-11T19:40:18.896Z,8.25
2018-05-11T19:45:21.488Z,10.90
2018-05-11T19:50:24.045Z,7.62
2018-05-11T19:55:26.566Z,7.00
2018-05-11T20:00:29.113Z,7.40
2018-05-11T20:05:31.631Z,7.80
2018-05-11T20:10:34.122Z,10.43
2018-05-11T20:15:41.807Z,8.60
2018-05-11T20:20:44.300Z,7.70
2018-05-11T20:25:46.864Z,8.00
2018-05-11T20:30:50.297Z,7.32
2018-05-11T20:35:52.857Z,7.15
2018-05-11T20:40:55.385Z,7.37
2018-05-11T20:46:00.573Z,7.85
2018-05-11T20:51:04.072Z,8.40
2018-05-11T20:56:07.579Z,8.05
2018-05-11T21:01:10.127Z,7.37
2018-05-11T21:06:29.823Z,6.90
2018-05-11T21:11:32.622Z,8.20
2018-05-11T21:16:35.261Z,8.02
2018-05-11T21:21:40.517Z,7.70
2018-05-11T21:26:45.042Z,8.50
2018-05-11T21:31:48.328Z,13.45
2018-05-11T21:36:53.659Z,14.50
2018-05-11T21:42:02.933Z,8.45
2018-05-11T21:47:06.364Z,8.85
2018-05-11T21:52:08.946Z,9.17
2018-05-11T21:57:14.657Z,9.10
2018-05-11T22:02:17.245Z,8.70
2018-05-11T22:07:19.996Z,9.13
2018-05-11T22:12:28.658Z,7.85
2018-05-11T22:17:53.030Z,9.23
2018-05-11T22:22:59.431Z,8.98
2018-05-11T22:28:03.010Z,9.77
2018-05-11T22:33:11.302Z,9.15
2018-05-11T22:38:21.493Z,10.70
2018-05-11T22:43:34.246Z,8.80
2018-05-11T22:48:38.845Z,10.07
2018-05-11T22:53:41.487Z,9.90
2018-05-11T22:58:44.109Z,9.70
2018-05-11T23:03:48.662Z,9.90
2018-05-11T23:08:52.069Z,10.60
2018-05-11T23:13:54.617Z,9.80
2018-05-11T23:18:57.170Z,9.50
2018-05-11T23:23:59.779Z,10.80
2018-05-11T23:29:13.455Z,10.40
2018-05-11T23:34:15.984Z,12.17
2018-05-11T23:39:18.717Z,12.73
2018-05-11T23:44:22.059Z,11.63
2018-05-11T23:49:25.009Z,11.50
2018-05-11T23:54:28.397Z,11.80
2018-05-11T23:59:32.818Z,11.93
